logo
Search for airport 
image banner adimage banner adimage banner ad
image banner ad

SVKG - La Gran China

Located in Zulia, Venezuela

ICAO - , IATA -

Data provided by Airmate  

General information

Coordinates: N9°46'33" W72°29'15"
Elevation is 137 feet MSL.
Magnetic variation is -10° East
View others Airports in Zulia

Operational data

Special qualification required
Current time UTC:
Current local time:
Weather at : - ( 0 km )
METAR: UWOR 191331Z 23009G17MPS 9999 TS BKN033CB 30/13 Q1009 R25/CLRD65 NOSIG RMK QFE733/0978
View NOTAMs / SUP AIP / TFR affecting this airport [VIEW]
Communications frequencies: [VIEW]

Runways:

RWY identifierQFULength (ft)Width (ft)SurfaceLDA (ft)
0428°397566GRAV
22208°397566GRAV

Airport contact information

Address: Zulia Venezuela

Satellite view of SVKG